Time;durP1;ratioP1;P1;durP2;ratioP2;P2;SDS_P1;SDS_P2;PMS_P1;PMS_P2;Temp;Humidity;BMP_temperature;BMP_pressure;BME280_temperature;BME280_humidity;BME280_pressure;Samples;Min_cycle;Max_cycle;Signal;HPM_P1;HPM_P2
2021/05/22 00:00:36;;;;;;;7.13;4.00;;;10.10;98.30;;;;;;4162803;28;20472;-84
2021/05/22 00:02:39;;;;;;;9.20;3.60;;;10.20;98.30;;;;;;4163243;28;21045;-84
2021/05/22 00:04:41;;;;;;;4.43;3.70;;;10.10;98.30;;;;;;4162549;28;20504;-84
2021/05/22 00:06:44;;;;;;;7.23;4.07;;;10.00;98.30;;;;;;4163897;28;20523;-84
2021/05/22 00:08:46;;;;;;;5.70;5.10;;;10.10;98.30;;;;;;4165783;28;20977;-84
2021/05/22 00:10:49;;;;;;;6.90;4.57;;;10.10;98.30;;;;;;4163926;28;20451;-84
2021/05/22 00:12:51;;;;;;;5.57;3.97;;;10.00;98.30;;;;;;4165250;28;20492;-84
2021/05/22 00:14:53;;;;;;;8.07;3.87;;;10.00;98.30;;;;;;4165232;28;20469;-83
2021/05/22 00:16:57;;;;;;;7.00;4.40;;;10.00;98.30;;;;;;4167418;28;20488;-84
2021/05/22 00:18:59;;;;;;;8.63;3.60;;;10.00;98.30;;;;;;4167308;28;20465;-84
2021/05/22 00:21:02;;;;;;;7.30;4.17;;;9.90;98.30;;;;;;4170572;28;20658;-83
2021/05/22 00:23:04;;;;;;;5.13;4.03;;;9.90;98.30;;;;;;4164003;28;20460;-84
2021/05/22 00:25:08;;;;;;;9.67;3.80;;;9.90;98.30;;;;;;4164092;28;20867;-84
2021/05/22 00:27:10;;;;;;;12.27;4.23;;;9.90;98.30;;;;;;4162811;28;20491;-84
2021/05/22 00:29:12;;;;;;;9.70;3.90;;;9.90;98.30;;;;;;4163051;28;20823;-84
2021/05/22 00:31:15;;;;;;;5.70;4.10;;;9.90;98.30;;;;;;4162499;28;20472;-84
2021/05/22 00:33:18;;;;;;;4.90;3.70;;;9.90;98.30;;;;;;4162807;28;20475;-84
2021/05/22 00:35:20;;;;;;;8.20;4.50;;;9.90;98.30;;;;;;4162643;28;20515;-84
2021/05/22 00:37:22;;;;;;;5.73;4.33;;;10.00;98.30;;;;;;4161645;28;20581;-84
2021/05/22 00:39:25;;;;;;;8.10;4.27;;;9.90;98.30;;;;;;4163913;28;20469;-84
2021/05/22 00:41:27;;;;;;;5.50;4.10;;;10.10;98.30;;;;;;4163835;28;20827;-84
2021/05/22 00:43:30;;;;;;;4.90;3.17;;;10.10;98.30;;;;;;4162234;28;20555;-83
2021/05/22 00:45:33;;;;;;;6.73;4.17;;;10.10;98.30;;;;;;4163112;28;20549;-84
2021/05/22 00:47:38;;;;;;;8.10;4.63;;;10.00;98.30;;;;;;4163371;28;20461;-82
2021/05/22 00:49:41;;;;;;;7.53;4.00;;;10.00;98.30;;;;;;4163395;28;20449;-82
2021/05/22 00:51:44;;;;;;;9.20;3.70;;;10.00;98.30;;;;;;4162289;28;21034;-82
2021/05/22 00:53:46;;;;;;;5.63;3.80;;;10.00;98.30;;;;;;4159104;28;20469;-81
2021/05/22 00:55:49;;;;;;;7.63;4.83;;;9.90;98.30;;;;;;4161798;28;20472;-81
2021/05/22 00:57:52;;;;;;;6.10;3.77;;;10.00;98.30;;;;;;4164534;28;20484;-82
2021/05/22 00:59:55;;;;;;;5.17;3.60;;;10.00;98.30;;;;;;4162940;28;20491;-82
2021/05/22 01:01:57;;;;;;;8.53;4.30;;;10.00;98.30;;;;;;4164168;28;20477;-82
2021/05/22 01:04:00;;;;;;;3.60;3.30;;;10.00;98.30;;;;;;4163463;28;20486;-81
2021/05/22 01:06:10;;;;;;;9.37;4.23;;;10.00;98.30;;;;;;4163167;28;20496;-82
2021/05/22 01:08:17;;;;;;;6.57;3.97;;;10.10;98.30;;;;;;4164303;28;20468;-82
2021/05/22 01:10:20;;;;;;;7.97;4.20;;;10.00;98.30;;;;;;4164256;28;20465;-82
2021/05/22 01:12:27;;;;;;;8.17;3.83;;;10.00;98.30;;;;;;4164349;28;20479;-82
2021/05/22 01:14:39;;;;;;;10.23;3.93;;;10.00;98.30;;;;;;4163773;28;20563;-83
2021/05/22 01:16:42;;;;;;;7.30;3.73;;;10.00;98.30;;;;;;4161883;28;20485;-81
2021/05/22 01:18:45;;;;;;;6.77;3.57;;;10.10;98.30;;;;;;4166502;28;20501;-82
2021/05/22 01:20:54;;;;;;;5.40;3.37;;;10.10;98.30;;;;;;4164903;28;20465;-82
2021/05/22 01:23:01;;;;;;;8.47;3.40;;;10.10;98.30;;;;;;4163342;28;20443;-82
2021/05/22 01:25:06;;;;;;;6.07;3.43;;;10.10;98.30;;;;;;4162496;28;20535;-81
2021/05/22 01:27:10;;;;;;;5.07;3.50;;;10.10;98.30;;;;;;4165824;28;20489;-82
2021/05/22 01:29:14;;;;;;;4.00;3.10;;;10.10;98.30;;;;;;4167685;28;20551;-82
2021/05/22 01:31:16;;;;;;;5.47;3.63;;;10.10;98.30;;;;;;4163311;28;20472;-82
2021/05/22 01:33:20;;;;;;;7.23;3.53;;;10.10;98.30;;;;;;4163466;28;20500;-82
2021/05/22 01:35:24;;;;;;;4.90;3.00;;;10.20;98.30;;;;;;4161691;28;20465;-82
2021/05/22 01:37:26;;;;;;;6.30;3.53;;;10.20;98.30;;;;;;4162081;28;21060;-82
2021/05/22 01:39:28;;;;;;;5.10;3.27;;;10.30;98.30;;;;;;4161982;28;20461;-82
2021/05/22 01:41:31;;;;;;;7.93;3.30;;;10.30;98.30;;;;;;4162983;28;20476;-82
2021/05/22 01:43:35;;;;;;;5.20;3.73;;;10.30;98.30;;;;;;4161089;28;20847;-82
2021/05/22 01:45:41;;;;;;;3.87;3.00;;;10.40;98.30;;;;;;4158947;28;20476;-82
2021/05/22 01:47:45;;;;;;;5.27;2.93;;;10.50;98.30;;;;;;4160939;28;20436;-82
2021/05/22 01:49:49;;;;;;;5.57;3.03;;;10.50;98.30;;;;;;4161395;28;20469;-82
2021/05/22 01:51:54;;;;;;;4.80;3.37;;;10.50;98.30;;;;;;4162695;28;20473;-82
2021/05/22 01:53:56;;;;;;;5.43;3.23;;;10.50;98.30;;;;;;4163379;28;20473;-81
2021/05/22 01:55:59;;;;;;;11.67;2.90;;;10.60;98.30;;;;;;4164141;28;20495;-82
2021/05/22 01:58:01;;;;;;;6.43;3.20;;;10.60;98.30;;;;;;4161454;28;20477;-82
2021/05/22 02:00:06;;;;;;;5.67;2.27;;;10.70;98.30;;;;;;4159879;28;20479;-82
2021/05/22 02:02:09;;;;;;;4.57;2.50;;;10.70;98.30;;;;;;4161472;28;20472;-82
2021/05/22 02:04:11;;;;;;;5.03;2.73;;;10.60;98.30;;;;;;4159559;28;20972;-82
2021/05/22 02:06:18;;;;;;;4.00;2.60;;;10.70;98.30;;;;;;4164181;28;20504;-82
2021/05/22 02:08:23;;;;;;;7.27;2.70;;;10.60;98.30;;;;;;4165120;28;20473;-83
2021/05/22 02:10:27;;;;;;;4.37;2.90;;;10.60;98.30;;;;;;4164812;28;20831;-83
2021/05/22 02:12:30;;;;;;;3.90;2.57;;;10.60;98.30;;;;;;4166258;28;20473;-83
2021/05/22 02:14:35;;;;;;;5.77;3.10;;;10.60;98.30;;;;;;4166855;28;20469;-83
2021/05/22 02:16:45;;;;;;;7.60;2.90;;;10.60;98.30;;;;;;4166360;28;20500;-82
2021/05/22 02:18:47;;;;;;;8.73;3.63;;;10.50;98.30;;;;;;4169843;28;20456;-82
2021/05/22 02:20:53;;;;;;;4.17;2.53;;;10.50;98.30;;;;;;4169116;28;20487;-83
2021/05/22 02:22:56;;;;;;;5.27;2.90;;;10.50;98.30;;;;;;4168371;28;20469;-83
2021/05/22 02:24:59;;;;;;;6.90;2.90;;;10.50;98.30;;;;;;4165204;28;20533;-82
2021/05/22 02:27:02;;;;;;;6.80;2.73;;;10.50;98.30;;;;;;4167277;28;20572;-83
2021/05/22 02:29:07;;;;;;;3.80;3.10;;;10.50;98.30;;;;;;4167953;28;20478;-82
2021/05/22 02:31:10;;;;;;;5.93;2.70;;;10.50;98.30;;;;;;4165879;28;20477;-82
2021/05/22 02:33:16;;;;;;;5.50;3.27;;;10.50;98.30;;;;;;4168053;28;20468;-83
2021/05/22 02:35:20;;;;;;;6.43;3.03;;;10.60;98.30;;;;;;4167648;28;20461;-83
2021/05/22 02:37:27;;;;;;;10.90;2.90;;;10.60;98.30;;;;;;4168129;28;20492;-83
2021/05/22 02:39:31;;;;;;;5.40;3.40;;;10.60;98.30;;;;;;4168137;28;20456;-83
2021/05/22 02:41:35;;;;;;;5.00;2.97;;;10.70;98.30;;;;;;4167958;28;21149;-83
2021/05/22 02:43:43;;;;;;;6.63;3.00;;;10.70;98.30;;;;;;4163251;28;20843;-82
2021/05/22 02:45:46;;;;;;;4.10;2.60;;;10.70;98.30;;;;;;4164705;28;20483;-83
2021/05/22 02:47:51;;;;;;;3.80;2.90;;;10.80;98.30;;;;;;4166522;28;20469;-83
2021/05/22 02:50:00;;;;;;;6.10;3.10;;;10.80;98.30;;;;;;4166992;28;20468;-82
2021/05/22 02:52:05;;;;;;;3.67;2.53;;;10.70;98.30;;;;;;4168174;28;20428;-83
2021/05/22 02:54:09;;;;;;;4.93;2.73;;;10.80;98.30;;;;;;4164068;28;20465;-81
2021/05/22 02:56:13;;;;;;;5.77;3.03;;;10.80;98.30;;;;;;4166886;28;20949;-83
2021/05/22 02:58:16;;;;;;;3.30;2.60;;;10.70;98.30;;;;;;4167397;28;20468;-82
2021/05/22 03:00:21;;;;;;;6.67;2.80;;;10.70;98.30;;;;;;4165834;28;20478;-83
2021/05/22 03:02:23;;;;;;;5.37;3.50;;;10.60;98.30;;;;;;4166623;28;20461;-83
2021/05/22 03:04:26;;;;;;;5.03;2.97;;;10.60;98.30;;;;;;4163697;28;20527;-83
2021/05/22 03:06:30;;;;;;;4.13;3.07;;;10.50;98.30;;;;;;4165915;28;20492;-83
2021/05/22 03:08:42;;;;;;;10.17;3.17;;;10.50;98.30;;;;;;4167605;28;21085;-83
2021/05/22 03:10:45;;;;;;;4.43;3.20;;;10.50;98.30;;;;;;4167876;28;20479;-83
2021/05/22 03:12:48;;;;;;;5.93;3.07;;;10.30;98.30;;;;;;4168063;28;20465;-83
2021/05/22 03:14:50;;;;;;;4.83;3.10;;;10.30;98.30;;;;;;4165225;28;20472;-82
2021/05/22 03:16:53;;;;;;;6.63;3.70;;;10.20;98.30;;;;;;4165373;28;20730;-83
2021/05/22 03:18:55;;;;;;;5.97;3.57;;;10.20;98.30;;;;;;4165024;28;20976;-83
2021/05/22 03:20:58;;;;;;;6.80;2.90;;;10.20;98.30;;;;;;4163663;28;20476;-83
2021/05/22 03:23:01;;;;;;;3.80;3.00;;;10.20;98.30;;;;;;4165104;28;20582;-82
2021/05/22 03:25:05;;;;;;;4.90;3.10;;;10.10;98.30;;;;;;4163825;28;20480;-83
2021/05/22 03:27:08;;;;;;;5.80;2.87;;;10.10;98.30;;;;;;4165735;28;20571;-83
2021/05/22 03:29:10;;;;;;;5.03;2.90;;;10.10;98.30;;;;;;4162455;28;20461;-83
2021/05/22 03:31:12;;;;;;;4.10;2.90;;;10.10;98.30;;;;;;4165591;28;20473;-83
2021/05/22 03:33:15;;;;;;;7.37;3.33;;;10.10;98.30;;;;;;4165024;28;21017;-83
2021/05/22 03:35:17;;;;;;;4.83;3.50;;;10.10;98.30;;;;;;4164077;28;20469;-83
2021/05/22 03:37:20;;;;;;;5.00;2.73;;;10.10;98.30;;;;;;4167699;28;20500;-82
2021/05/22 03:39:23;;;;;;;5.00;3.17;;;10.10;98.30;;;;;;4167000;28;20487;-83
2021/05/22 03:41:25;;;;;;;6.90;3.00;;;10.10;98.30;;;;;;4165617;28;20465;-83
2021/05/22 03:43:28;;;;;;;6.10;3.10;;;10.10;98.30;;;;;;4165896;28;20469;-83
2021/05/22 03:45:31;;;;;;;8.90;3.43;;;9.90;98.30;;;;;;4164696;28;20569;-83
2021/05/22 03:47:34;;;;;;;7.30;3.00;;;10.00;98.30;;;;;;4166868;28;20481;-82
2021/05/22 03:49:37;;;;;;;6.43;3.20;;;10.00;98.30;;;;;;4167448;28;20466;-83
2021/05/22 03:51:40;;;;;;;3.60;2.90;;;10.00;98.30;;;;;;4168164;28;20465;-83
2021/05/22 03:53:42;;;;;;;6.27;3.40;;;9.90;98.30;;;;;;4167528;28;20554;-83
2021/05/22 03:55:46;;;;;;;10.57;3.87;;;9.90;98.30;;;;;;4165789;28;20476;-83
2021/05/22 03:57:48;;;;;;;8.60;2.90;;;10.00;98.30;;;;;;4165390;28;20469;-83
2021/05/22 03:59:50;;;;;;;6.33;3.00;;;10.00;98.30;;;;;;4166916;28;20475;-83
2021/05/22 04:01:53;;;;;;;5.40;2.90;;;10.10;98.30;;;;;;4164768;28;20483;-83
2021/05/22 04:03:55;;;;;;;4.17;2.67;;;10.10;98.30;;;;;;4165841;28;20480;-83
2021/05/22 04:05:58;;;;;;;3.57;2.80;;;10.10;98.30;;;;;;4166673;28;20615;-83
2021/05/22 04:08:01;;;;;;;5.27;3.10;;;10.10;98.30;;;;;;4168172;28;20457;-83
2021/05/22 04:10:04;;;;;;;5.43;3.10;;;10.10;98.30;;;;;;4168410;28;20850;-83
2021/05/22 04:12:08;;;;;;;3.80;2.60;;;10.20;98.30;;;;;;4167331;28;20431;-83
2021/05/22 04:14:11;;;;;;;6.20;2.93;;;10.30;98.30;;;;;;4168079;28;20469;-83
2021/05/22 04:16:13;;;;;;;6.10;3.03;;;10.30;98.30;;;;;;4168340;28;21368;-83
2021/05/22 04:18:15;;;;;;;5.97;2.80;;;10.30;98.30;;;;;;4165556;28;20516;-83
2021/05/22 04:20:18;;;;;;;6.10;2.93;;;10.40;98.30;;;;;;4166384;28;20472;-83
2021/05/22 04:22:20;;;;;;;7.40;3.10;;;10.40;98.30;;;;;;4162665;28;20476;-83
2021/05/22 04:24:22;;;;;;;7.83;2.90;;;10.40;98.30;;;;;;4163283;28;20477;-83
2021/05/22 04:26:25;;;;;;;4.83;2.83;;;10.50;98.30;;;;;;4163651;28;20579;-83
2021/05/22 04:28:28;;;;;;;5.40;3.17;;;10.50;98.30;;;;;;4164814;28;20834;-83
2021/05/22 04:30:31;;;;;;;5.70;2.70;;;10.50;98.30;;;;;;4163296;28;20545;-82
2021/05/22 04:32:33;;;;;;;6.33;2.83;;;10.50;98.30;;;;;;4165237;28;20547;-83
2021/05/22 04:34:36;;;;;;;4.23;2.50;;;10.60;98.30;;;;;;4163446;28;20986;-82
2021/05/22 04:36:38;;;;;;;8.70;2.87;;;10.60;98.30;;;;;;4164653;28;20499;-82
2021/05/22 04:38:41;;;;;;;5.93;3.00;;;10.50;98.30;;;;;;4165110;28;20499;-83
2021/05/22 04:40:43;;;;;;;3.90;2.70;;;10.50;98.30;;;;;;4163558;28;20985;-83
2021/05/22 04:42:48;;;;;;;4.37;2.97;;;10.50;98.30;;;;;;4163801;28;20461;-83
2021/05/22 04:44:52;;;;;;;5.10;3.00;;;10.50;98.30;;;;;;4163565;28;20582;-83
2021/05/22 04:46:54;;;;;;;5.70;2.67;;;10.60;98.30;;;;;;4162729;28;20500;-83
2021/05/22 04:48:56;;;;;;;2.97;2.67;;;10.60;98.30;;;;;;4163863;28;20472;-83
2021/05/22 04:50:59;;;;;;;3.50;2.97;;;10.60;98.30;;;;;;4163652;28;20473;-83
2021/05/22 04:53:01;;;;;;;3.87;3.00;;;10.60;98.30;;;;;;4163691;28;20492;-83
2021/05/22 04:55:04;;;;;;;7.30;3.00;;;10.60;98.30;;;;;;4161812;28;20902;-83
2021/05/22 04:57:07;;;;;;;4.10;2.70;;;10.70;98.30;;;;;;4164393;28;20493;-82
2021/05/22 04:59:09;;;;;;;3.10;2.60;;;10.70;98.30;;;;;;4163175;28;20820;-82
2021/05/22 05:01:12;;;;;;;8.27;2.93;;;10.70;98.30;;;;;;4162397;28;20479;-81
2021/05/22 05:03:14;;;;;;;10.50;2.93;;;10.80;98.30;;;;;;4161364;28;20473;-83
2021/05/22 05:05:17;;;;;;;4.90;2.73;;;10.90;98.30;;;;;;4159660;28;20473;-82
2021/05/22 05:07:19;;;;;;;5.93;2.70;;;10.80;98.30;;;;;;4162760;28;20488;-82
2021/05/22 05:09:22;;;;;;;5.97;2.67;;;10.90;98.30;;;;;;4159190;28;20535;-83
2021/05/22 05:11:24;;;;;;;5.10;2.80;;;10.90;98.30;;;;;;4161217;28;20476;-83
2021/05/22 05:13:26;;;;;;;4.90;2.40;;;11.00;98.30;;;;;;4160421;28;20472;-82
2021/05/22 05:15:29;;;;;;;6.67;2.80;;;11.00;98.30;;;;;;4163931;28;20464;-82
2021/05/22 05:17:32;;;;;;;6.03;3.07;;;11.10;98.30;;;;;;4158977;28;20492;-82
2021/05/22 05:19:35;;;;;;;6.23;2.60;;;11.10;98.30;;;;;;4163656;28;20475;-83
2021/05/22 05:21:37;;;;;;;3.97;2.60;;;11.10;98.30;;;;;;4166189;28;20465;-83
2021/05/22 05:23:40;;;;;;;6.33;2.70;;;11.20;98.30;;;;;;4162722;28;20483;-82
2021/05/22 05:25:42;;;;;;;6.97;2.67;;;11.30;98.30;;;;;;4164438;28;20475;-83
2021/05/22 05:27:45;;;;;;;6.63;2.80;;;11.40;98.30;;;;;;4167267;28;20465;-84
2021/05/22 05:29:47;;;;;;;4.90;2.50;;;11.50;98.30;;;;;;4170724;28;20487;-83
2021/05/22 05:31:49;;;;;;;3.50;2.10;;;11.60;98.30;;;;;;4174105;28;20480;-84
2021/05/22 05:33:53;;;;;;;5.93;2.90;;;11.60;98.30;;;;;;4173904;28;20473;-84
2021/05/22 05:35:55;;;;;;;4.43;2.60;;;11.70;98.30;;;;;;4169624;28;20463;-84
2021/05/22 05:37:57;;;;;;;4.87;2.40;;;11.70;98.30;;;;;;4169083;28;20479;-83
2021/05/22 05:40:00;;;;;;;5.97;2.70;;;11.70;98.30;;;;;;4166511;28;20841;-83
2021/05/22 05:42:02;;;;;;;2.60;2.40;;;11.70;98.30;;;;;;4166502;28;20465;-82
2021/05/22 05:44:05;;;;;;;3.90;2.20;;;11.70;98.30;;;;;;4166238;28;20480;-83
2021/05/22 05:46:08;;;;;;;4.03;2.23;;;11.80;98.30;;;;;;4167483;28;20516;-82
2021/05/22 05:48:10;;;;;;;4.33;2.30;;;11.80;98.30;;;;;;4167911;28;20555;-82
2021/05/22 05:50:14;;;;;;;4.40;2.37;;;11.80;98.30;;;;;;4165617;28;20484;-83
2021/05/22 05:52:16;;;;;;;4.43;2.20;;;11.80;98.30;;;;;;4164644;28;20479;-82
2021/05/22 05:54:18;;;;;;;3.23;2.30;;;11.90;98.30;;;;;;4165541;28;20469;-83
2021/05/22 05:56:21;;;;;;;5.63;2.20;;;11.80;98.30;;;;;;4164586;28;20485;-83
2021/05/22 05:58:23;;;;;;;5.20;2.60;;;11.90;98.30;;;;;;4165251;28;20495;-83
2021/05/22 06:00:26;;;;;;;5.10;2.67;;;11.90;98.30;;;;;;4166068;28;20481;-83
2021/05/22 06:02:29;;;;;;;3.50;2.50;;;12.00;98.30;;;;;;4164176;28;20457;-84
2021/05/22 06:04:32;;;;;;;6.87;2.77;;;11.90;98.30;;;;;;4164115;28;20478;-83
2021/05/22 06:06:36;;;;;;;3.63;2.47;;;11.90;98.30;;;;;;4164209;28;20488;-83
2021/05/22 06:08:40;;;;;;;5.43;2.40;;;12.00;98.30;;;;;;4162642;28;20552;-83
2021/05/22 06:10:43;;;;;;;5.57;2.53;;;12.00;98.30;;;;;;4166259;28;20468;-84
2021/05/22 06:12:46;;;;;;;3.43;3.13;;;12.10;98.30;;;;;;4166340;28;22412;-83
2021/05/22 06:14:52;;;;;;;4.47;2.70;;;12.10;98.30;;;;;;4163862;28;20546;-84
2021/05/22 06:16:54;;;;;;;3.77;2.30;;;12.20;98.30;;;;;;4163187;28;21020;-83
2021/05/22 06:18:57;;;;;;;5.33;2.50;;;12.20;98.30;;;;;;4164915;28;20480;-84
2021/05/22 06:21:00;;;;;;;4.63;2.50;;;12.30;98.30;;;;;;4165257;28;20914;-83
2021/05/22 06:23:03;;;;;;;4.87;3.53;;;12.20;98.30;;;;;;4163850;28;20537;-82
2021/05/22 06:25:10;;;;;;;7.90;3.07;;;12.20;98.30;;;;;;4165564;28;20476;-83
2021/05/22 06:27:12;;;;;;;6.27;2.90;;;12.20;98.30;;;;;;4162275;28;20481;-83
2021/05/22 06:29:14;;;;;;;3.90;2.80;;;12.20;98.30;;;;;;4164354;28;20457;-83
2021/05/22 06:31:17;;;;;;;4.13;3.00;;;12.20;98.30;;;;;;4166252;28;20468;-83
2021/05/22 06:33:19;;;;;;;4.57;2.60;;;12.20;98.30;;;;;;4163186;28;20938;-83
2021/05/22 06:35:21;;;;;;;5.40;2.70;;;12.30;98.30;;;;;;4162980;28;20479;-83
2021/05/22 06:37:25;;;;;;;3.63;2.50;;;12.30;98.30;;;;;;4162775;28;20501;-83
2021/05/22 06:39:28;;;;;;;4.17;2.30;;;12.30;98.30;;;;;;4164327;28;20588;-83
2021/05/22 06:41:30;;;;;;;4.73;2.70;;;12.30;98.30;;;;;;4162551;28;20947;-83
2021/05/22 06:43:33;;;;;;;3.87;2.73;;;12.30;98.30;;;;;;4165576;28;20831;-82
2021/05/22 06:45:39;;;;;;;4.43;2.37;;;12.30;98.30;;;;;;4165310;28;20878;-83
2021/05/22 06:47:42;;;;;;;4.43;2.50;;;12.20;98.30;;;;;;4164006;28;20481;-83
2021/05/22 06:49:44;;;;;;;3.93;2.60;;;12.10;98.30;;;;;;4164073;28;20837;-83
2021/05/22 06:51:49;;;;;;;4.20;2.90;;;12.10;98.30;;;;;;4165813;28;20469;-83
2021/05/22 06:53:51;;;;;;;3.80;2.67;;;12.20;98.30;;;;;;4165778;28;20464;-83
2021/05/22 06:55:54;;;;;;;4.30;2.80;;;12.20;98.30;;;;;;4166347;28;20885;-83
2021/05/22 06:57:57;;;;;;;3.70;2.60;;;12.30;98.30;;;;;;4165499;28;20958;-83
2021/05/22 06:59:59;;;;;;;3.20;2.77;;;12.40;98.30;;;;;;4165775;28;20473;-83
2021/05/22 07:02:02;;;;;;;4.53;2.77;;;12.30;98.30;;;;;;4166884;28;21053;-83
2021/05/22 07:04:05;;;;;;;8.00;3.30;;;12.30;98.30;;;;;;4168304;28;20463;-83
2021/05/22 07:06:12;;;;;;;7.03;2.80;;;12.30;98.30;;;;;;4165052;28;20993;-83
2021/05/22 07:08:15;;;;;;;6.60;3.20;;;12.30;98.30;;;;;;4167105;28;20461;-83
2021/05/22 07:10:17;;;;;;;7.63;2.70;;;12.40;98.30;;;;;;4169070;28;21292;-82
2021/05/22 07:12:20;;;;;;;5.20;3.10;;;12.40;98.30;;;;;;4166957;28;21014;-83
2021/05/22 07:14:22;;;;;;;3.90;2.87;;;12.40;98.30;;;;;;4166436;28;20496;-83
2021/05/22 07:16:28;;;;;;;4.20;2.40;;;12.40;98.30;;;;;;4168022;28;20531;-83
2021/05/22 07:18:31;;;;;;;4.60;2.57;;;12.50;98.30;;;;;;4167181;28;20461;-83
2021/05/22 07:20:33;;;;;;;4.47;2.80;;;12.50;98.30;;;;;;4167467;28;20815;-83
2021/05/22 07:22:36;;;;;;;4.17;2.93;;;12.50;98.30;;;;;;4167942;28;20460;-83
2021/05/22 07:24:41;;;;;;;3.17;2.70;;;12.60;98.30;;;;;;4163352;28;20473;-83
2021/05/22 07:26:48;;;;;;;4.20;2.30;;;12.60;98.30;;;;;;4162921;28;20538;-83
2021/05/22 07:28:53;;;;;;;3.93;2.43;;;12.60;98.30;;;;;;4162693;28;20477;-83
2021/05/22 07:30:55;;;;;;;2.83;2.40;;;12.60;98.30;;;;;;4166318;28;20468;-83
2021/05/22 07:32:58;;;;;;;6.47;2.83;;;12.60;98.30;;;;;;4168179;28;20818;-83
2021/05/22 07:35:00;;;;;;;2.20;2.00;;;12.60;98.30;;;;;;4167453;28;20476;-83
2021/05/22 07:37:02;;;;;;;5.77;2.30;;;12.70;98.30;;;;;;4165759;28;20538;-82
2021/05/22 07:39:09;;;;;;;7.77;3.17;;;12.70;98.30;;;;;;4164770;28;20547;-83
2021/05/22 07:41:16;;;;;;;4.30;2.63;;;12.70;98.30;;;;;;4163503;28;20504;-83
2021/05/22 07:43:20;;;;;;;5.27;2.73;;;12.80;98.30;;;;;;4163584;28;20469;-83
2021/05/22 07:45:23;;;;;;;5.40;3.00;;;12.80;98.30;;;;;;4162873;28;20822;-83
2021/05/22 07:47:25;;;;;;;8.20;2.67;;;12.80;98.30;;;;;;4162996;28;20540;-83
2021/05/22 07:49:37;;;;;;;6.83;2.50;;;12.90;98.30;;;;;;4166609;28;20473;-82
2021/05/22 07:51:40;;;;;;;7.00;2.70;;;12.80;98.30;;;;;;4165435;28;20472;-82
2021/05/22 07:53:43;;;;;;;4.57;2.60;;;12.80;98.30;;;;;;4166111;28;20469;-82
2021/05/22 07:55:46;;;;;;;4.80;2.70;;;12.90;98.30;;;;;;4166431;28;20496;-84
2021/05/22 07:57:49;;;;;;;2.60;2.37;;;12.90;98.30;;;;;;4163207;28;20854;-83
2021/05/22 07:59:51;;;;;;;4.47;2.60;;;13.10;98.30;;;;;;4163031;28;20472;-83
2021/05/22 08:01:54;;;;;;;4.33;2.50;;;13.00;98.30;;;;;;4165457;28;20479;-82
2021/05/22 08:03:57;;;;;;;4.43;2.50;;;13.00;98.30;;;;;;4164407;28;21063;-81
2021/05/22 08:05:59;;;;;;;3.30;2.50;;;12.90;98.30;;;;;;4163456;28;20481;-82
2021/05/22 08:08:01;;;;;;;2.97;2.40;;;12.90;98.30;;;;;;4162952;28;20489;-82
2021/05/22 08:10:05;;;;;;;5.20;3.07;;;12.80;98.30;;;;;;4163568;28;20475;-84
2021/05/22 08:12:08;;;;;;;2.90;2.57;;;12.80;98.30;;;;;;4164100;28;20503;-84
2021/05/22 08:14:11;;;;;;;6.90;2.40;;;12.80;98.30;;;;;;4163643;28;20978;-84
2021/05/22 08:16:13;;;;;;;3.80;2.43;;;12.90;98.30;;;;;;4163954;28;20496;-83
2021/05/22 08:18:16;;;;;;;2.73;2.40;;;12.80;98.30;;;;;;4163209;28;20568;-83
2021/05/22 08:20:19;;;;;;;4.37;2.53;;;12.80;98.30;;;;;;4164519;28;20471;-83
2021/05/22 08:22:22;;;;;;;3.77;2.43;;;12.90;98.30;;;;;;4163915;28;20476;-83
2021/05/22 08:24:24;;;;;;;6.83;2.50;;;12.90;98.30;;;;;;4164654;28;20453;-83
2021/05/22 08:26:29;;;;;;;6.03;3.63;;;13.00;98.30;;;;;;4165229;28;21097;-83
2021/05/22 08:28:53;;;;;;;4.07;2.43;;;12.90;98.30;;;;;;4164737;28;20461;-83
2021/05/22 08:30:59;;;;;;;6.70;3.40;;;12.80;98.30;;;;;;4165015;28;20484;-83
2021/05/22 08:33:02;;;;;;;6.30;3.00;;;12.80;98.30;;;;;;4166311;28;20973;-83
2021/05/22 08:35:08;;;;;;;3.40;2.43;;;12.70;98.30;;;;;;4165484;28;20463;-83
2021/05/22 08:37:13;;;;;;;3.33;2.60;;;12.80;98.30;;;;;;4164604;28;20559;-83
2021/05/22 08:39:15;;;;;;;3.43;2.53;;;12.80;98.30;;;;;;4166231;28;20472;-84
2021/05/22 08:41:21;;;;;;;2.97;2.43;;;12.80;98.30;;;;;;4167215;28;20465;-83
2021/05/22 08:43:24;;;;;;;5.77;2.77;;;12.70;98.30;;;;;;4169102;28;20493;-83
2021/05/22 08:45:26;;;;;;;4.20;2.70;;;12.40;98.30;;;;;;4159550;28;20472;-83
2021/05/22 08:47:30;;;;;;;5.40;3.00;;;12.30;98.30;;;;;;4162283;28;20500;-84
2021/05/22 08:49:40;;;;;;;4.40;3.10;;;12.20;98.30;;;;;;4163755;28;20477;-83
2021/05/22 08:51:44;;;;;;;4.37;3.20;;;12.20;98.30;;;;;;4165684;28;20484;-83
2021/05/22 08:53:47;;;;;;;8.33;3.13;;;12.20;98.30;;;;;;4165940;28;21013;-83
2021/05/22 08:55:49;;;;;;;8.17;5.60;;;12.20;98.30;;;;;;4165377;28;21145;-83
2021/05/22 08:57:52;;;;;;;5.37;2.93;;;12.30;98.30;;;;;;4165856;28;20463;-84
2021/05/22 08:59:54;;;;;;;6.10;3.10;;;12.30;98.30;;;;;;4166470;28;20550;-83
2021/05/22 09:01:57;;;;;;;3.30;2.73;;;12.30;98.30;;;;;;4166578;28;20483;-83
2021/05/22 09:04:01;;;;;;;5.77;3.27;;;12.40;98.30;;;;;;4165802;28;20489;-83
2021/05/22 09:06:04;;;;;;;3.70;3.30;;;12.30;98.30;;;;;;4163362;28;20809;-84
2021/05/22 09:08:11;;;;;;;5.67;3.00;;;12.10;98.30;;;;;;4165184;28;20525;-84
2021/05/22 09:10:17;;;;;;;5.00;2.70;;;11.90;98.30;;;;;;4163548;28;20461;-84
2021/05/22 09:12:19;;;;;;;5.57;3.80;;;11.80;98.30;;;;;;4163720;28;20501;-83
2021/05/22 09:14:48;;;;;;;3.80;2.83;;;11.70;98.30;;;;;;4163165;28;20465;-83
2021/05/22 09:16:52;;;;;;;3.47;3.00;;;11.70;98.30;;;;;;4144572;28;20504;-84
2021/05/22 09:19:01;;;;;;;6.40;4.33;;;11.60;98.30;;;;;;4163424;28;20461;-83
2021/05/22 09:21:06;;;;;;;5.50;3.30;;;11.60;98.30;;;;;;4161267;28;20460;-82
2021/05/22 09:23:14;;;;;;;3.53;3.20;;;11.50;98.30;;;;;;4161059;28;20461;-83
2021/05/22 09:25:28;;;;;;;9.53;3.80;;;11.60;98.30;;;;;;4160554;28;20472;-84
2021/05/22 09:27:32;;;;;;;5.77;4.17;;;11.50;98.30;;;;;;4159957;28;20504;-84
2021/05/22 09:29:43;;;;;;;6.40;3.80;;;11.60;98.30;;;;;;4160709;28;20464;-84
2021/05/22 09:31:45;;;;;;;6.87;4.23;;;11.60;98.30;;;;;;4160819;28;20996;-84
2021/05/22 09:33:48;;;;;;;5.00;3.70;;;11.60;98.30;;;;;;4160284;28;21197;-83
2021/05/22 09:35:52;;;;;;;3.80;3.40;;;11.60;98.30;;;;;;4159938;28;20989;-83
2021/05/22 09:37:58;;;;;;;5.60;3.87;;;11.50;98.30;;;;;;4160353;28;21000;-83
2021/05/22 09:40:01;;;;;;;4.73;3.87;;;11.50;98.30;;;;;;4160562;28;20469;-83
2021/05/22 09:42:05;;;;;;;5.80;4.17;;;11.50;98.30;;;;;;4160208;28;20958;-84
2021/05/22 09:44:10;;;;;;;3.90;3.60;;;11.40;98.30;;;;;;4159328;28;20476;-85
2021/05/22 09:46:12;;;;;;;6.77;3.97;;;11.40;98.30;;;;;;4159573;28;20488;-84
2021/05/22 09:48:17;;;;;;;4.10;3.60;;;11.30;98.30;;;;;;4159409;28;20499;-84
2021/05/22 09:50:34;;;;;;;9.63;3.40;;;11.30;98.30;;;;;;4159903;28;20479;-84
2021/05/22 09:52:37;;;;;;;5.43;3.60;;;11.20;98.30;;;;;;4160543;28;20476;-84
2021/05/22 09:54:47;;;;;;;5.77;3.67;;;11.20;98.30;;;;;;4159995;28;20935;-85
2021/05/22 09:56:50;;;;;;;5.10;3.40;;;11.20;98.30;;;;;;4158048;28;20488;-86
2021/05/22 09:58:54;;;;;;;8.10;3.90;;;11.10;98.30;;;;;;4162916;28;20543;-84
2021/05/22 10:00:57;;;;;;;5.90;3.67;;;11.10;98.30;;;;;;4161852;28;20493;-84
2021/05/22 10:03:01;;;;;;;7.60;4.10;;;11.10;98.30;;;;;;4161839;28;20475;-84
2021/05/22 10:05:15;;;;;;;6.07;3.70;;;11.10;98.30;;;;;;4161820;28;20469;-84
2021/05/22 10:07:33;;;;;;;5.80;3.53;;;11.10;98.30;;;;;;4160807;28;20576;-84
2021/05/22 10:09:39;;;;;;;9.40;4.20;;;11.10;98.30;;;;;;4161958;28;20472;-83
2021/05/22 10:12:06;;;;;;;4.13;3.77;;;11.10;98.30;;;;;;4163516;28;20476;-84
2021/05/22 10:14:08;;;;;;;7.03;3.90;;;11.00;98.30;;;;;;4161048;28;20465;-83
2021/05/22 10:16:11;;;;;;;5.10;3.70;;;11.00;98.30;;;;;;4159577;28;20485;-84
2021/05/22 10:18:16;;;;;;;7.57;4.33;;;10.90;98.30;;;;;;4163382;28;20842;-84
2021/05/22 10:20:18;;;;;;;4.40;3.83;;;10.90;98.30;;;;;;4161985;28;20457;-83
2021/05/22 10:22:21;;;;;;;4.00;3.60;;;10.90;98.30;;;;;;4159532;28;20469;-83
2021/05/22 10:24:24;;;;;;;6.03;3.47;;;10.90;98.30;;;;;;4159993;28;20521;-84
2021/05/22 10:26:27;;;;;;;4.50;3.43;;;10.80;98.30;;;;;;4162877;28;20484;-84
2021/05/22 10:28:30;;;;;;;5.77;3.93;;;10.90;98.30;;;;;;4164525;28;20556;-83
2021/05/22 10:30:33;;;;;;;6.83;4.30;;;10.90;98.30;;;;;;4164935;28;20888;-84
2021/05/22 10:32:37;;;;;;;5.93;4.00;;;10.80;98.30;;;;;;4165353;28;20471;-83
2021/05/22 10:34:40;;;;;;;4.93;4.20;;;10.80;98.30;;;;;;4165367;28;20829;-84
2021/05/22 10:36:51;;;;;;;6.27;3.70;;;10.80;98.30;;;;;;4164253;28;20897;-83
2021/05/22 10:38:54;;;;;;;5.93;4.33;;;10.70;98.30;;;;;;4163283;28;20515;-83
2021/05/22 10:40:56;;;;;;;5.53;4.53;;;10.70;98.30;;;;;;4161667;28;20476;-83
2021/05/22 10:43:00;;;;;;;9.27;4.20;;;10.70;98.30;;;;;;4163690;28;20997;-83
2021/05/22 10:45:27;;;;;;;7.50;4.13;;;10.70;98.30;;;;;;4162250;28;20473;-83